createdAt,value
2019-06-26T00:01:01.533Z,22.58
2019-06-26T00:06:08.215Z,22.39
2019-06-26T00:11:14.891Z,22.29
2019-06-26T00:16:21.395Z,22.20
2019-06-26T00:21:27.888Z,22.14
2019-06-26T00:26:34.521Z,22.05
2019-06-26T00:31:41.074Z,21.97
2019-06-26T00:36:48.537Z,21.85
2019-06-26T00:41:55.290Z,21.76
2019-06-26T00:47:01.814Z,21.64
2019-06-26T00:52:08.429Z,21.50
2019-06-26T00:57:15.117Z,21.42
2019-06-26T01:02:22.084Z,21.27
2019-06-26T01:07:28.625Z,21.19
2019-06-26T01:12:35.210Z,21.00
2019-06-26T01:17:41.843Z,20.90
2019-06-26T01:22:48.354Z,20.86
2019-06-26T01:27:55.135Z,20.72
2019-06-26T01:33:01.674Z,20.58
2019-06-26T01:38:08.298Z,20.43
2019-06-26T01:43:14.777Z,20.31
2019-06-26T01:48:21.296Z,20.24
2019-06-26T01:53:27.788Z,20.10
2019-06-26T01:58:34.250Z,20.05
2019-06-26T02:03:40.751Z,19.92
2019-06-26T02:08:47.656Z,19.82
2019-06-26T02:13:54.268Z,19.76
2019-06-26T02:19:03.603Z,19.70
2019-06-26T02:24:10.093Z,19.66
2019-06-26T02:29:16.736Z,19.59
2019-06-26T02:34:23.294Z,19.58
2019-06-26T02:39:29.744Z,19.56
2019-06-26T02:44:52.019Z,19.53
2019-06-26T02:49:44.483Z,19.49
2019-06-26T02:54:52.117Z,19.38
2019-06-26T02:59:58.656Z,19.37
2019-06-26T03:05:05.625Z,19.22
2019-06-26T03:10:13.082Z,19.14
2019-06-26T03:15:19.698Z,19.03
2019-06-26T03:20:30.737Z,19.06
2019-06-26T03:25:37.316Z,19.07
2019-06-26T03:30:43.984Z,19.08
2019-06-26T03:35:50.466Z,19.15
2019-06-26T03:40:57.101Z,19.22
2019-06-26T03:46:03.750Z,19.30
2019-06-26T03:51:13.739Z,19.51
2019-06-26T03:56:18.768Z,19.66
2019-06-26T04:01:25.264Z,19.94
2019-06-26T04:06:31.904Z,20.28
2019-06-26T04:11:38.416Z,20.65
2019-06-26T04:16:45.417Z,20.95
2019-06-26T04:21:52.024Z,24.72
2019-06-26T04:26:59.510Z,27.16
2019-06-26T04:32:06.054Z,26.43
2019-06-26T04:37:12.524Z,25.58
2019-06-26T04:42:19.149Z,26.01
2019-06-26T04:47:25.607Z,27.36
2019-06-26T04:52:32.541Z,29.06
2019-06-26T04:57:39.180Z,30.73
2019-06-26T05:02:45.819Z,33.13
2019-06-26T05:07:53.812Z,32.06
2019-06-26T05:13:00.750Z,27.97
2019-06-26T05:18:07.490Z,26.88
2019-06-26T05:23:14.118Z,26.81
2019-06-26T05:28:20.607Z,26.95
2019-06-26T05:33:27.167Z,27.05
2019-06-26T05:38:33.638Z,27.22
2019-06-26T05:43:40.347Z,27.44
2019-06-26T05:48:46.952Z,27.64
2019-06-26T05:53:53.347Z,27.89
2019-06-26T05:58:59.879Z,27.99
2019-06-26T06:04:06.494Z,28.03
2019-06-26T06:09:13.119Z,28.36
2019-06-26T06:14:19.594Z,28.65
2019-06-26T06:19:26.114Z,28.88
2019-06-26T06:24:32.731Z,29.20
2019-06-26T06:29:39.413Z,29.75
2019-06-26T06:34:45.974Z,29.94
2019-06-26T06:39:52.638Z,29.63
2019-06-26T06:45:02.430Z,30.22
2019-06-26T06:50:09.091Z,30.44
2019-06-26T06:55:15.810Z,30.79
2019-06-26T07:00:23.676Z,30.61
2019-06-26T07:05:30.183Z,30.79
2019-06-26T07:10:36.774Z,30.89
2019-06-26T07:15:43.320Z,31.13
2019-06-26T07:20:50.042Z,31.37
2019-06-26T07:25:56.599Z,31.44
2019-06-26T07:31:03.198Z,31.64
2019-06-26T07:36:09.815Z,31.61
2019-06-26T07:41:16.286Z,31.72
2019-06-26T07:46:22.924Z,32.11
2019-06-26T07:51:29.522Z,32.19
2019-06-26T07:56:36.254Z,32.64
2019-06-26T08:01:42.814Z,32.73
2019-06-26T08:06:49.442Z,32.62
2019-06-26T08:11:56.017Z,32.88
2019-06-26T08:17:02.705Z,33.38
2019-06-26T08:22:09.411Z,33.49
2019-06-26T08:27:15.953Z,33.46
2019-06-26T08:32:25.855Z,33.47
2019-06-26T08:37:30.665Z,33.92
2019-06-26T08:42:45.720Z,33.94
2019-06-26T08:47:52.208Z,34.68
2019-06-26T08:52:58.832Z,34.55
2019-06-26T08:58:05.655Z,34.73
2019-06-26T09:03:12.128Z,34.65
2019-06-26T09:08:19.046Z,35.17
2019-06-26T09:13:25.852Z,35.22
2019-06-26T09:18:35.827Z,35.16
2019-06-26T09:23:40.536Z,35.62
2019-06-26T09:28:47.015Z,35.47
2019-06-26T09:33:53.557Z,35.73
2019-06-26T09:39:00.220Z,35.22
2019-06-26T09:44:07.051Z,35.66
2019-06-26T09:49:13.915Z,35.48
2019-06-26T09:54:20.465Z,36.02
2019-06-26T09:59:26.853Z,35.86
2019-06-26T10:04:33.549Z,36.02
2019-06-26T10:09:40.112Z,35.98
2019-06-26T10:14:48.014Z,36.41
2019-06-26T10:19:55.031Z,36.34
2019-06-26T10:25:01.634Z,36.30
2019-06-26T10:30:10.516Z,36.26
2019-06-26T10:35:18.529Z,36.53
2019-06-26T10:40:25.205Z,36.86
2019-06-26T10:45:35.185Z,36.86
2019-06-26T10:50:49.332Z,36.73
2019-06-26T10:55:48.449Z,36.81
2019-06-26T11:00:55.163Z,36.94
2019-06-26T11:06:01.621Z,37.29
2019-06-26T11:11:08.266Z,37.12
2019-06-26T11:16:14.863Z,37.15
2019-06-26T11:21:21.495Z,37.39
2019-06-26T11:26:28.141Z,37.93
2019-06-26T11:31:34.804Z,37.99
2019-06-26T11:36:41.358Z,38.04
2019-06-26T11:41:47.897Z,38.42
2019-06-26T11:46:55.070Z,38.20
2019-06-26T11:52:01.620Z,38.13
2019-06-26T11:57:08.287Z,38.18
2019-06-26T12:02:14.965Z,38.47
2019-06-26T12:07:22.975Z,38.07
2019-06-26T12:12:29.554Z,38.28
2019-06-26T12:17:36.025Z,38.51
2019-06-26T12:22:42.528Z,38.26
2019-06-26T12:27:49.363Z,38.14
2019-06-26T12:33:02.865Z,37.84
2019-06-26T12:38:04.081Z,37.84
2019-06-26T12:43:10.711Z,38.06
2019-06-26T12:48:17.223Z,38.56
2019-06-26T12:53:24.075Z,37.95
2019-06-26T12:58:30.579Z,38.35
2019-06-26T13:03:37.107Z,38.36
2019-06-26T13:08:43.654Z,37.99
2019-06-26T13:14:01.922Z,38.21
2019-06-26T13:18:58.659Z,38.29
2019-06-26T13:24:05.316Z,38.53
2019-06-26T13:29:11.763Z,38.34
2019-06-26T13:34:18.360Z,38.53
2019-06-26T13:39:24.926Z,38.57
2019-06-26T13:44:31.499Z,38.65
2019-06-26T13:49:38.039Z,38.43
2019-06-26T13:54:44.562Z,38.15
2019-06-26T13:59:51.244Z,38.09
2019-06-26T14:04:58.765Z,38.01
2019-06-26T14:10:05.475Z,38.27
2019-06-26T14:15:13.619Z,38.46
2019-06-26T14:20:21.253Z,38.45
2019-06-26T14:25:28.027Z,38.34
2019-06-26T14:30:34.655Z,38.15
2019-06-26T14:35:41.282Z,38.15
2019-06-26T14:40:47.867Z,38.10
2019-06-26T14:45:54.461Z,38.12
2019-06-26T14:51:00.980Z,38.06
2019-06-26T14:56:07.630Z,38.19
2019-06-26T15:01:14.294Z,38.13
2019-06-26T15:06:20.923Z,38.45
2019-06-26T15:11:27.498Z,37.99
2019-06-26T15:16:34.136Z,37.67
2019-06-26T15:21:48.661Z,37.53
2019-06-26T15:26:49.102Z,37.30
2019-06-26T15:31:55.582Z,37.40
2019-06-26T15:37:02.141Z,37.46
2019-06-26T15:42:08.778Z,37.45
2019-06-26T15:47:15.561Z,37.30
2019-06-26T15:52:22.141Z,36.75
2019-06-26T15:57:28.623Z,37.04
2019-06-26T16:02:43.243Z,37.17
2019-06-26T16:07:50.031Z,36.93
2019-06-26T16:12:56.789Z,37.14
2019-06-26T16:18:09.004Z,36.73
2019-06-26T16:23:15.739Z,36.54
2019-06-26T16:28:22.597Z,36.78
2019-06-26T16:33:29.227Z,36.85
2019-06-26T16:38:35.876Z,36.90
2019-06-26T16:43:42.587Z,36.88
2019-06-26T16:48:49.133Z,36.83
2019-06-26T16:53:55.913Z,36.75
2019-06-26T16:59:02.610Z,36.58
2019-06-26T17:04:09.124Z,36.65
2019-06-26T17:09:15.739Z,36.62
2019-06-26T17:14:22.330Z,36.31
2019-06-26T17:19:28.886Z,35.74
2019-06-26T17:24:36.467Z,35.25
2019-06-26T17:29:43.252Z,34.98
2019-06-26T17:34:49.828Z,34.69
2019-06-26T17:39:56.431Z,34.33
2019-06-26T17:45:03.041Z,34.05
2019-06-26T17:50:10.443Z,33.80
2019-06-26T17:55:17.287Z,33.49
2019-06-26T18:00:29.169Z,33.20
2019-06-26T18:05:35.798Z,32.88
2019-06-26T18:10:43.358Z,32.64
2019-06-26T18:15:49.917Z,32.40
2019-06-26T18:20:56.364Z,32.17
2019-06-26T18:26:13.166Z,31.86
2019-06-26T18:31:11.460Z,31.64
2019-06-26T18:36:18.015Z,31.36
2019-06-26T18:41:26.396Z,31.16
2019-06-26T18:46:33.072Z,30.98
2019-06-26T18:51:39.765Z,30.84
2019-06-26T18:56:47.511Z,30.71
2019-06-26T19:01:56.129Z,30.57
2019-06-26T19:07:02.744Z,30.40
2019-06-26T19:12:10.447Z,30.21
2019-06-26T19:17:17.340Z,30.22
2019-06-26T19:22:26.662Z,30.13
2019-06-26T19:27:34.292Z,30.03
2019-06-26T19:32:40.864Z,29.93
2019-06-26T19:37:49.986Z,29.72
2019-06-26T19:42:56.573Z,29.54
2019-06-26T19:48:06.606Z,29.26
2019-06-26T19:53:13.254Z,29.24
2019-06-26T19:58:26.297Z,29.02
2019-06-26T20:03:28.165Z,28.95
2019-06-26T20:08:34.639Z,28.81
2019-06-26T20:13:41.182Z,28.46
2019-06-26T20:18:47.752Z,28.18
2019-06-26T20:23:54.331Z,28.06
2019-06-26T20:29:00.989Z,27.78
2019-06-26T20:34:07.622Z,27.76
2019-06-26T20:39:14.110Z,27.64
2019-06-26T20:44:20.736Z,27.49
2019-06-26T20:49:27.266Z,27.39
2019-06-26T20:54:33.692Z,27.18
2019-06-26T20:59:40.288Z,26.95
2019-06-26T21:04:46.860Z,26.76
2019-06-26T21:09:54.488Z,26.68
2019-06-26T21:15:00.907Z,26.66
2019-06-26T21:20:09.137Z,26.87
2019-06-26T21:25:18.991Z,26.79
2019-06-26T21:30:27.219Z,26.74
2019-06-26T21:35:33.779Z,26.54
2019-06-26T21:40:40.268Z,26.56
2019-06-26T21:45:48.043Z,26.55
2019-06-26T21:50:54.686Z,26.47
2019-06-26T21:56:01.170Z,26.37
2019-06-26T22:01:25.443Z,26.30
2019-06-26T22:06:50.233Z,26.22
2019-06-26T22:12:14.463Z,26.13
2019-06-26T22:17:37.855Z,26.04
2019-06-26T22:22:44.937Z,25.93
2019-06-26T22:27:51.510Z,25.71
2019-06-26T22:32:58.117Z,25.66
2019-06-26T22:38:04.837Z,25.50
2019-06-26T22:43:11.527Z,25.49
2019-06-26T22:48:18.217Z,25.41
2019-06-26T22:53:24.805Z,25.18
2019-06-26T22:58:31.275Z,24.99
2019-06-26T23:03:37.880Z,24.83
2019-06-26T23:08:44.360Z,24.74
2019-06-26T23:13:51.025Z,24.75
2019-06-26T23:18:57.579Z,24.79
2019-06-26T23:24:04.079Z,24.83
2019-06-26T23:29:10.622Z,24.82
2019-06-26T23:34:17.297Z,24.85
2019-06-26T23:39:23.954Z,24.81
2019-06-26T23:44:30.454Z,24.79
2019-06-26T23:49:37.179Z,24.78
2019-06-26T23:54:43.603Z,24.70
2019-06-26T23:59:50.076Z,24.62
